createdAt,value
2018-12-16T00:00:30.641Z,98986.00
2018-12-16T00:02:57.612Z,98981.00
2018-12-16T00:05:24.520Z,98978.00
2018-12-16T00:07:51.560Z,98974.00
2018-12-16T00:10:18.542Z,98976.00
2018-12-16T00:12:45.581Z,98971.00
2018-12-16T00:15:12.760Z,98973.00
2018-12-16T00:17:39.761Z,98968.00
2018-12-16T00:20:06.800Z,98973.00
2018-12-16T00:22:33.839Z,98976.00
2018-12-16T00:25:01.323Z,98975.00
2018-12-16T00:27:28.281Z,98968.00
2018-12-16T00:30:02.580Z,98959.00
2018-12-16T00:32:29.521Z,98972.00
2018-12-16T00:34:56.520Z,98963.00
2018-12-16T00:37:23.741Z,98960.00
2018-12-16T00:39:50.699Z,98953.00
2018-12-16T00:42:17.641Z,98960.00
2018-12-16T00:44:51.681Z,98954.00
2018-12-16T00:47:18.662Z,98951.00
2018-12-16T00:49:45.660Z,98956.00
2018-12-16T00:52:12.620Z,98943.00
2018-12-16T00:54:39.679Z,98949.00
2018-12-16T00:57:06.700Z,98942.00
2018-12-16T00:59:33.781Z,98934.00
2018-12-16T01:02:00.801Z,98935.00
2018-12-16T01:04:27.780Z,98913.00
2018-12-16T01:06:54.781Z,98925.00
2018-12-16T01:09:22.100Z,98918.00
2018-12-16T01:11:49.082Z,98913.00
2018-12-16T01:14:16.141Z,98914.00
2018-12-16T01:16:43.162Z,98911.00
2018-12-16T01:19:10.121Z,98910.00
2018-12-16T01:21:44.062Z,98901.00
2018-12-16T01:24:11.100Z,98898.00
2018-12-16T01:26:38.061Z,98889.00
2018-12-16T01:29:05.001Z,98900.00
2018-12-16T01:31:31.954Z,98880.00
2018-12-16T01:34:06.057Z,98884.00
2018-12-16T01:36:33.015Z,98881.00
2018-12-16T01:38:59.995Z,98870.00
2018-12-16T01:41:26.954Z,98868.00
2018-12-16T01:43:53.895Z,98843.00
2018-12-16T01:46:20.934Z,98847.00
2018-12-16T01:48:47.895Z,98851.00
2018-12-16T01:51:14.955Z,98834.00
2018-12-16T01:53:41.907Z,98842.00
2018-12-16T01:56:08.895Z,98844.00
2018-12-16T01:58:42.717Z,98836.00
2018-12-16T02:01:09.769Z,98842.00
2018-12-16T02:03:36.768Z,98835.00
2018-12-16T02:06:03.929Z,98833.00
2018-12-16T02:08:30.970Z,98828.00
2018-12-16T02:11:04.850Z,98826.00
2018-12-16T02:13:31.849Z,98837.00
2018-12-16T02:15:58.930Z,98832.00
2018-12-16T02:18:25.970Z,98834.00
2018-12-16T02:20:53.052Z,98839.00
2018-12-16T02:23:20.051Z,98836.00
2018-12-16T02:25:47.090Z,98832.00
2018-12-16T02:28:14.189Z,98838.00
2018-12-16T02:30:41.200Z,98838.00
2018-12-16T02:33:08.131Z,98832.00
2018-12-16T02:35:35.169Z,98836.00
2018-12-16T02:38:02.209Z,98839.00
2018-12-16T02:40:29.608Z,98831.00
2018-12-16T02:42:56.649Z,98829.00
2018-12-16T02:45:23.651Z,98830.00
2018-12-16T02:47:50.691Z,98818.00
2018-12-16T02:50:17.649Z,98815.00
2018-12-16T02:52:44.693Z,98806.00
2018-12-16T02:55:11.712Z,98800.00
2018-12-16T02:57:38.772Z,98807.00
2018-12-16T03:00:07.649Z,98797.00
2018-12-16T03:02:34.650Z,98786.00
2018-12-16T03:05:01.573Z,98791.00
2018-12-16T03:07:28.590Z,98773.00
2018-12-16T03:09:55.570Z,98778.00
2018-12-16T03:12:22.635Z,98762.00
2018-12-16T03:14:49.673Z,98761.00
2018-12-16T03:17:16.790Z,98770.00
2018-12-16T03:19:43.799Z,98765.00
2018-12-16T03:22:10.856Z,98768.00
2018-12-16T03:24:37.869Z,98761.00
2018-12-16T03:27:11.970Z,98764.00
2018-12-16T03:29:39.010Z,98765.00
2018-12-16T03:32:05.994Z,98763.00
2018-12-16T03:34:33.049Z,98764.00
2018-12-16T03:37:00.028Z,98751.00
2018-12-16T03:39:27.052Z,98761.00
2018-12-16T03:41:54.049Z,98764.00
2018-12-16T03:44:21.330Z,98757.00
2018-12-16T03:46:48.371Z,98758.00
2018-12-16T03:49:15.472Z,98759.00
2018-12-16T03:51:42.478Z,98757.00
2018-12-16T03:54:09.591Z,98755.00
2018-12-16T03:56:36.611Z,98757.00
2018-12-16T03:59:16.192Z,98755.00
2018-12-16T04:01:47.110Z,98750.00
2018-12-16T04:04:14.297Z,98752.00
2018-12-16T04:06:43.280Z,98742.00
2018-12-16T04:09:10.795Z,98741.00
2018-12-16T04:11:37.789Z,98750.00
2018-12-16T04:14:04.690Z,98743.00
2018-12-16T04:16:31.789Z,98736.00
2018-12-16T04:18:58.791Z,98737.00
2018-12-16T04:21:26.084Z,98738.00
2018-12-16T04:23:53.049Z,98738.00
2018-12-16T04:26:19.990Z,98742.00
2018-12-16T04:28:47.029Z,98734.00
2018-12-16T04:31:13.853Z,98737.00
2018-12-16T04:33:40.849Z,98734.00
2018-12-16T04:36:14.789Z,98726.00
2018-12-16T04:38:41.870Z,98731.00
2018-12-16T04:41:08.849Z,98734.00
2018-12-16T04:43:36.129Z,98726.00
2018-12-16T04:46:03.129Z,98729.00
2018-12-16T04:48:30.128Z,98725.00
2018-12-16T04:50:57.088Z,98717.00
2018-12-16T04:53:24.049Z,98714.00
2018-12-16T04:55:51.509Z,98713.00
2018-12-16T04:58:18.430Z,98707.00
2018-12-16T05:00:45.469Z,98696.00
2018-12-16T05:03:12.529Z,98686.00
2018-12-16T05:05:39.508Z,98675.00
2018-12-16T05:08:06.498Z,98668.00
2018-12-16T05:10:33.469Z,98663.00
2018-12-16T05:13:00.509Z,98653.00
2018-12-16T05:15:27.590Z,98647.00
2018-12-16T05:17:54.548Z,98637.00
2018-12-16T05:20:28.569Z,98639.00
2018-12-16T05:22:55.575Z,98642.00
2018-12-16T05:25:22.609Z,98636.00
2018-12-16T05:27:49.529Z,98634.00
2018-12-16T05:30:16.568Z,98644.00
2018-12-16T05:32:43.500Z,98634.00
2018-12-16T05:35:10.529Z,98644.00
2018-12-16T05:37:37.549Z,98649.00
2018-12-16T05:40:04.729Z,98642.00
2018-12-16T05:42:31.689Z,98653.00
2018-12-16T05:44:58.689Z,98654.00
2018-12-16T05:47:25.669Z,98646.00
2018-12-16T05:49:53.230Z,98638.00
2018-12-16T05:52:20.212Z,98636.00
2018-12-16T05:54:47.168Z,98645.00
2018-12-16T05:57:14.168Z,98642.00
2018-12-16T05:59:41.149Z,98647.00
2018-12-16T06:02:08.091Z,98650.00
2018-12-16T06:04:35.069Z,98643.00
2018-12-16T06:07:02.110Z,98643.00
2018-12-16T06:09:29.109Z,98631.00
2018-12-16T06:11:56.089Z,98622.00
2018-12-16T06:14:23.069Z,98624.00
2018-12-16T06:16:50.489Z,98615.00
2018-12-16T06:19:17.469Z,98612.00
2018-12-16T06:21:44.449Z,98620.00
2018-12-16T06:24:11.709Z,98612.00
2018-12-16T06:26:38.688Z,98606.00
2018-12-16T06:29:13.048Z,98599.00
2018-12-16T06:31:39.869Z,98593.00
2018-12-16T06:34:06.832Z,98589.00
2018-12-16T06:36:33.859Z,98591.00
2018-12-16T06:39:01.408Z,98586.00
2018-12-16T06:41:28.822Z,98589.00
2018-12-16T06:43:56.088Z,98610.00
2018-12-16T06:46:23.040Z,98615.00
2018-12-16T06:48:57.020Z,98625.00
2018-12-16T06:51:23.979Z,98625.00
2018-12-16T06:53:50.975Z,98623.00
2018-12-16T06:56:18.076Z,98609.00
2018-12-16T06:58:45.054Z,98615.00
2018-12-16T07:01:12.056Z,98605.00
2018-12-16T07:03:39.042Z,98612.00
2018-12-16T07:06:06.115Z,98600.00
2018-12-16T07:08:33.089Z,98605.00
2018-12-16T07:11:00.090Z,98595.00
2018-12-16T07:13:27.028Z,98604.00
2018-12-16T07:15:54.309Z,98598.00
2018-12-16T07:18:21.170Z,98586.00
2018-12-16T07:20:48.159Z,98589.00
2018-12-16T07:23:15.182Z,98590.00
2018-12-16T07:25:42.042Z,98583.00
2018-12-16T07:28:09.075Z,98586.00
2018-12-16T07:30:43.055Z,98587.00
2018-12-16T07:33:10.142Z,98576.00
2018-12-16T07:35:37.329Z,98578.00
2018-12-16T07:38:04.429Z,98588.00
2018-12-16T07:40:31.426Z,98577.00
2018-12-16T07:42:58.434Z,98567.00
2018-12-16T07:45:25.510Z,98580.00
2018-12-16T07:47:52.549Z,98577.00
2018-12-16T07:50:19.546Z,98581.00
2018-12-16T07:52:46.587Z,98574.00
2018-12-16T07:55:13.997Z,98563.00
2018-12-16T07:57:41.103Z,98558.00
2018-12-16T08:00:09.223Z,98553.00
2018-12-16T08:02:36.326Z,98550.00
2018-12-16T08:05:05.166Z,98559.00
2018-12-16T08:07:32.268Z,98551.00
2018-12-16T08:09:59.280Z,98544.00
2018-12-16T08:12:33.040Z,98544.00
2018-12-16T08:14:59.865Z,98556.00
2018-12-16T08:17:26.900Z,98560.00
2018-12-16T08:19:53.829Z,98550.00
2018-12-16T08:22:20.989Z,98540.00
2018-12-16T08:24:47.952Z,98531.00
2018-12-16T08:27:14.991Z,98530.00
2018-12-16T08:29:42.111Z,98542.00
2018-12-16T08:32:09.420Z,98537.00
2018-12-16T08:34:36.480Z,98526.00
2018-12-16T08:37:03.513Z,98508.00
2018-12-16T08:39:30.513Z,98513.00
2018-12-16T08:42:04.352Z,98512.00
2018-12-16T08:44:31.434Z,98512.00
2018-12-16T08:46:58.309Z,98516.00
2018-12-16T08:49:25.296Z,98521.00
2018-12-16T08:51:52.273Z,98531.00
2018-12-16T08:54:19.313Z,98538.00
2018-12-16T08:56:46.164Z,98535.00
2018-12-16T08:59:13.230Z,98535.00
2018-12-16T09:01:47.447Z,98543.00
2018-12-16T09:04:14.570Z,98538.00
2018-12-16T09:06:41.571Z,98527.00
2018-12-16T09:09:09.510Z,98527.00
2018-12-16T09:11:36.530Z,98518.00
2018-12-16T09:14:03.600Z,98523.00
2018-12-16T09:16:30.464Z,98522.00
2018-12-16T09:18:57.490Z,98517.00
2018-12-16T09:21:25.012Z,98510.00
2018-12-16T09:23:51.912Z,98492.00
2018-12-16T09:26:18.991Z,98487.00
2018-12-16T09:28:45.964Z,98468.00
2018-12-16T09:31:13.009Z,98468.00
2018-12-16T09:33:39.989Z,98459.00
2018-12-16T09:36:06.989Z,98473.00
2018-12-16T09:38:33.933Z,98466.00
2018-12-16T09:41:01.913Z,98468.00
2018-12-16T09:43:28.820Z,98461.00
2018-12-16T09:45:55.661Z,98470.00
2018-12-16T09:48:22.648Z,98481.00
2018-12-16T09:50:50.488Z,98495.00
2018-12-16T09:53:20.192Z,98484.00
2018-12-16T10:43:57.261Z,98454.00
2018-12-16T10:46:24.451Z,98462.00
2018-12-16T10:48:51.320Z,98472.00
2018-12-16T10:51:18.539Z,98457.00
2018-12-16T10:53:45.678Z,98457.00
2018-12-16T10:56:12.797Z,98442.00
2018-12-16T10:58:39.859Z,98436.00
2018-12-16T11:01:13.254Z,98444.00
2018-12-16T11:03:40.316Z,98445.00
2018-12-16T11:06:07.817Z,98451.00
2018-12-16T11:08:35.475Z,98453.00
2018-12-16T11:11:02.635Z,98437.00
2018-12-16T11:13:29.876Z,98433.00
2018-12-16T11:16:03.835Z,98433.00
2018-12-16T11:18:31.277Z,98422.00
2018-12-16T11:20:58.415Z,98429.00
2018-12-16T11:23:25.555Z,98427.00
2018-12-16T11:25:52.716Z,98443.00
2018-12-16T11:28:19.876Z,98438.00
2018-12-16T11:30:46.988Z,98431.00
2018-12-16T11:33:21.060Z,98436.00
2018-12-16T11:35:48.216Z,98436.00
2018-12-16T11:38:15.456Z,98444.00
2018-12-16T11:40:49.439Z,98439.00
2018-12-16T11:43:23.919Z,98437.00
2018-12-16T11:45:51.037Z,98432.00
2018-12-16T11:48:18.236Z,98415.00
2018-12-16T11:50:46.019Z,98411.00
2018-12-16T11:53:13.175Z,98410.00
2018-12-16T11:55:40.636Z,98392.00
2018-12-16T11:58:07.736Z,98388.00
2018-12-16T12:00:34.917Z,98392.00
2018-12-16T12:03:02.015Z,98401.00
2018-12-16T12:05:29.246Z,98412.00
2018-12-16T12:07:56.542Z,98418.00
2018-12-16T12:10:23.660Z,98429.00
2018-12-16T12:12:50.724Z,98419.00
2018-12-16T12:15:17.920Z,98421.00
2018-12-16T12:17:45.005Z,98433.00
2018-12-16T12:20:12.519Z,98428.00
2018-12-16T12:22:39.727Z,98427.00
2018-12-16T12:25:06.897Z,98422.00
2018-12-16T12:27:34.078Z,98417.00
2018-12-16T12:30:01.222Z,98416.00
2018-12-16T12:32:28.360Z,98429.00
2018-12-16T12:34:55.448Z,98437.00
2018-12-16T12:37:23.008Z,98431.00
2018-12-16T12:39:50.128Z,98430.00
2018-12-16T12:42:17.288Z,98426.00
2018-12-16T12:44:44.465Z,98432.00
2018-12-16T12:47:11.598Z,98426.00
2018-12-16T12:49:44.898Z,98428.00
2018-12-16T12:52:08.730Z,98436.00
2018-12-16T12:54:35.833Z,98437.00
2018-12-16T12:57:03.043Z,98438.00
2018-12-16T12:59:30.035Z,98436.00
2018-12-16T13:01:57.085Z,98430.00
2018-12-16T13:04:24.205Z,98441.00
2018-12-16T13:06:58.393Z,98453.00
2018-12-16T13:09:25.425Z,98452.00
2018-12-16T13:11:52.642Z,98448.00
2018-12-16T13:14:26.660Z,98451.00
2018-12-16T13:16:53.760Z,98444.00
2018-12-16T13:19:21.166Z,98442.00
2018-12-16T13:21:48.235Z,98451.00
2018-12-16T13:24:15.247Z,98451.00
2018-12-16T13:26:42.403Z,98458.00
2018-12-16T13:29:09.581Z,98466.00
2018-12-16T13:31:36.440Z,98460.00
2018-12-16T13:34:03.674Z,98462.00
2018-12-16T13:36:30.915Z,98456.00
2018-12-16T13:38:58.134Z,98466.00
2018-12-16T13:41:25.444Z,98468.00
2018-12-16T13:43:52.639Z,98475.00
2018-12-16T13:46:19.819Z,98477.00
2018-12-16T13:48:47.008Z,98481.00
2018-12-16T13:51:14.099Z,98481.00
2018-12-16T13:53:41.162Z,98488.00
2018-12-16T13:56:08.345Z,98476.00
2018-12-16T13:58:35.394Z,98489.00
2018-12-16T14:01:02.588Z,98494.00
2018-12-16T14:03:29.682Z,98501.00
2018-12-16T14:05:56.902Z,98491.00
2018-12-16T14:08:23.977Z,98492.00
2018-12-16T14:10:58.376Z,98482.00
2018-12-16T14:13:25.424Z,98484.00
2018-12-16T14:15:52.759Z,98493.00
2018-12-16T14:18:20.193Z,98495.00
2018-12-16T14:20:47.378Z,98494.00
2018-12-16T14:23:14.393Z,98499.00
2018-12-16T14:25:47.817Z,98490.00
2018-12-16T14:28:10.664Z,98489.00
2018-12-16T14:30:37.679Z,98491.00
2018-12-16T14:33:04.862Z,98497.00
2018-12-16T14:35:31.995Z,98491.00
2018-12-16T14:37:59.366Z,98502.00
2018-12-16T14:40:26.393Z,98510.00
2018-12-16T14:42:53.613Z,98506.00
2018-12-16T14:48:14.514Z,98508.00
2018-12-16T14:50:41.654Z,98514.00
2018-12-16T14:53:08.855Z,98511.00
2018-12-16T14:55:35.954Z,98509.00
2018-12-16T14:58:03.154Z,98511.00
2018-12-16T15:00:30.353Z,98506.00
2018-12-16T15:02:57.474Z,98517.00
2018-12-16T15:05:24.607Z,98521.00
2018-12-16T15:07:52.055Z,98524.00
2018-12-16T15:10:19.233Z,98523.00
2018-12-16T15:12:46.374Z,98521.00
2018-12-16T15:15:13.493Z,98518.00
2018-12-16T15:17:42.893Z,98516.00
2018-12-16T15:20:09.857Z,98520.00
2018-12-16T15:22:37.280Z,98531.00
2018-12-16T15:25:05.176Z,98525.00
2018-12-16T15:27:32.237Z,98518.00
2018-12-16T15:29:59.376Z,98527.00
2018-12-16T15:32:26.465Z,98545.00
2018-12-16T15:34:53.597Z,98552.00
2018-12-16T15:37:20.738Z,98536.00
2018-12-16T15:39:47.878Z,98531.00
2018-12-16T15:42:14.919Z,98538.00
2018-12-16T15:44:48.997Z,98547.00
2018-12-16T15:47:16.137Z,98552.00
2018-12-16T15:49:43.341Z,98552.00
2018-12-16T15:52:10.518Z,98552.00
2018-12-16T15:54:37.677Z,98554.00
2018-12-16T15:57:04.857Z,98553.00
2018-12-16T15:59:31.970Z,98557.00
2018-12-16T16:02:06.040Z,98557.00
2018-12-16T16:04:33.198Z,98550.00
2018-12-16T16:07:00.563Z,98542.00
2018-12-16T16:09:27.657Z,98537.00
2018-12-16T16:11:54.795Z,98542.00
2018-12-16T16:14:21.916Z,98543.00
2018-12-16T16:16:49.037Z,98542.00
2018-12-16T16:19:17.022Z,98540.00
2018-12-16T16:21:44.102Z,98546.00
2018-12-16T16:24:11.241Z,98547.00
2018-12-16T16:26:38.431Z,98546.00
2018-12-16T16:29:06.141Z,98551.00
2018-12-16T16:31:33.352Z,98552.00
2018-12-16T16:34:00.484Z,98558.00
2018-12-16T16:36:27.724Z,98555.00
2018-12-16T16:38:54.904Z,98556.00
2018-12-16T16:41:22.021Z,98565.00
2018-12-16T16:43:49.101Z,98554.00
2018-12-16T16:46:16.391Z,98555.00
2018-12-16T16:48:43.533Z,98554.00
2018-12-16T16:51:10.991Z,98545.00
2018-12-16T16:53:38.124Z,98556.00
2018-12-16T16:56:05.335Z,98559.00
2018-12-16T16:58:32.633Z,98551.00
2018-12-16T17:00:59.933Z,98570.00
2018-12-16T17:03:34.193Z,98578.00
2018-12-16T17:06:01.394Z,98585.00
2018-12-16T17:08:28.655Z,98587.00
2018-12-16T17:10:55.915Z,98582.00
2018-12-16T17:13:23.155Z,98584.00
2018-12-16T17:15:57.215Z,98573.00
2018-12-16T17:18:24.435Z,98582.00
2018-12-16T17:20:51.654Z,98596.00
2018-12-16T17:23:18.816Z,98606.00
2018-12-16T17:25:48.406Z,98600.00
2018-12-16T17:28:15.195Z,98595.00
2018-12-16T17:30:42.395Z,98592.00
2018-12-16T17:33:09.555Z,98597.00
2018-12-16T17:35:36.814Z,98591.00
2018-12-16T17:38:03.909Z,98584.00
2018-12-16T17:40:31.094Z,98594.00
2018-12-16T17:42:58.254Z,98601.00
2018-12-16T17:45:25.418Z,98598.00
2018-12-16T17:47:52.675Z,98604.00
2018-12-16T17:50:19.975Z,98603.00
2018-12-16T17:52:47.157Z,98605.00
2018-12-16T17:55:14.298Z,98610.00
2018-12-16T17:57:41.375Z,98614.00
2018-12-16T18:00:09.695Z,98608.00
2018-12-16T18:02:36.796Z,98620.00
2018-12-16T18:05:05.218Z,98610.00
2018-12-16T18:07:32.395Z,98607.00
2018-12-16T18:09:59.475Z,98610.00
2018-12-16T18:12:26.715Z,98619.00
2018-12-16T18:14:53.794Z,98619.00
2018-12-16T18:17:20.957Z,98618.00
2018-12-16T18:19:48.157Z,98633.00
2018-12-16T18:22:15.276Z,98635.00
2018-12-16T18:24:42.534Z,98643.00
2018-12-16T18:27:09.735Z,98632.00
2018-12-16T18:29:36.734Z,98636.00
2018-12-16T18:32:03.875Z,98633.00
2018-12-16T18:34:31.335Z,98641.00
2018-12-16T18:36:58.457Z,98645.00
2018-12-16T18:39:25.652Z,98646.00
2018-12-16T18:41:52.975Z,98631.00
2018-12-16T18:44:20.096Z,98644.00
2018-12-16T18:46:47.154Z,98642.00
2018-12-16T18:49:14.314Z,98650.00
2018-12-16T18:51:41.277Z,98655.00
2018-12-16T18:54:08.414Z,98657.00
2018-12-16T18:56:35.498Z,98647.00
2018-12-16T18:59:02.657Z,98640.00
2018-12-16T19:01:29.698Z,98631.00
2018-12-16T19:03:56.954Z,98635.00
2018-12-16T19:06:24.155Z,98627.00
2018-12-16T19:08:51.296Z,98628.00
2018-12-16T19:11:18.514Z,98632.00
2018-12-16T19:13:45.713Z,98629.00
2018-12-16T19:16:12.939Z,98634.00
2018-12-16T19:18:40.600Z,98621.00
2018-12-16T19:21:07.779Z,98624.00
2018-12-16T19:23:34.960Z,98629.00
2018-12-16T19:26:02.080Z,98638.00
2018-12-16T19:28:29.460Z,98637.00
2018-12-16T19:30:56.499Z,98646.00
2018-12-16T19:33:23.648Z,98640.00
2018-12-16T19:35:50.749Z,98650.00
2018-12-16T19:38:17.926Z,98643.00
2018-12-16T19:40:45.071Z,98656.00
2018-12-16T19:43:12.166Z,98647.00
2018-12-16T19:45:46.226Z,98656.00
2018-12-16T19:48:13.468Z,98662.00
2018-12-16T19:50:40.587Z,98657.00
2018-12-16T19:53:07.747Z,98656.00
2018-12-16T19:55:34.886Z,98663.00
2018-12-16T19:58:02.426Z,98662.00
2018-12-16T20:00:29.585Z,98654.00
2018-12-16T20:02:56.786Z,98663.00
2018-12-16T20:05:23.967Z,98657.00
2018-12-16T20:07:51.186Z,98662.00
2018-12-16T20:10:18.426Z,98660.00
2018-12-16T20:12:45.625Z,98664.00
2018-12-16T20:15:13.365Z,98661.00
2018-12-16T20:17:40.626Z,98661.00
2018-12-16T20:20:08.131Z,98663.00
2018-12-16T20:22:35.501Z,98657.00
2018-12-16T20:25:03.187Z,98656.00
2018-12-16T20:27:30.367Z,98672.00
2018-12-16T20:29:58.286Z,98681.00
2018-12-16T20:32:25.588Z,98684.00
2018-12-16T20:34:52.907Z,98687.00
2018-12-16T20:37:20.106Z,98694.00
2018-12-16T20:39:47.248Z,98695.00
2018-12-16T20:42:14.447Z,98683.00
2018-12-16T20:44:41.587Z,98684.00
2018-12-16T20:47:08.848Z,98698.00
2018-12-16T20:49:36.246Z,98702.00
2018-12-16T20:52:03.526Z,98701.00
2018-12-16T20:54:30.707Z,98697.00
2018-12-16T20:56:57.886Z,98702.00
2018-12-16T20:59:25.027Z,98692.00
2018-12-16T21:01:52.187Z,98701.00
2018-12-16T21:04:19.473Z,98697.00
2018-12-16T21:06:47.006Z,98701.00
2018-12-16T21:09:14.246Z,98703.00
2018-12-16T21:11:47.434Z,98706.00
2018-12-16T21:14:20.546Z,98705.00
2018-12-16T21:20:00.007Z,98705.00
2018-12-16T21:22:27.166Z,98701.00
2018-12-16T21:24:54.309Z,98704.00
2018-12-16T21:27:25.916Z,98719.00
2018-12-16T21:29:51.196Z,98708.00
2018-12-16T21:32:18.347Z,98703.00
2018-12-16T21:34:45.507Z,98706.00
2018-12-16T21:37:12.586Z,98710.00
2018-12-16T21:39:39.726Z,98714.00
2018-12-16T21:42:06.866Z,98710.00
2018-12-16T21:44:34.128Z,98720.00
2018-12-16T21:47:01.266Z,98710.00
2018-12-16T21:49:28.446Z,98716.00
2018-12-16T21:51:55.625Z,98718.00
2018-12-16T21:54:22.748Z,98711.00
2018-12-16T21:56:50.346Z,98712.00
2018-12-16T21:59:17.509Z,98713.00
2018-12-16T22:01:44.706Z,98700.00
2018-12-16T22:04:11.986Z,98697.00
2018-12-16T22:06:39.187Z,98688.00
2018-12-16T22:09:07.086Z,98698.00
2018-12-16T22:11:34.247Z,98706.00
2018-12-16T22:14:01.346Z,98691.00
2018-12-16T22:16:28.528Z,98696.00
2018-12-16T22:18:55.685Z,98693.00
2018-12-16T22:21:22.887Z,98695.00
2018-12-16T22:23:49.905Z,98694.00
2018-12-16T22:26:17.085Z,98692.00
2018-12-16T22:28:44.167Z,98684.00
2018-12-16T22:31:11.487Z,98696.00
2018-12-16T22:33:38.686Z,98698.00
2018-12-16T22:36:05.806Z,98693.00
2018-12-16T22:38:32.927Z,98694.00
2018-12-16T22:41:00.087Z,98697.00
2018-12-16T22:43:27.227Z,98695.00
2018-12-16T22:45:54.307Z,98706.00
2018-12-16T22:48:21.522Z,98708.00
2018-12-16T22:50:48.725Z,98702.00
2018-12-16T22:53:15.886Z,98703.00
2018-12-16T22:55:43.049Z,98693.00
2018-12-16T22:58:10.225Z,98695.00
2018-12-16T23:03:44.947Z,98699.00
2018-12-16T23:06:12.128Z,98696.00
2018-12-16T23:08:39.249Z,98694.00
2018-12-16T23:11:06.445Z,98702.00
2018-12-16T23:13:33.646Z,98700.00
2018-12-16T23:16:00.866Z,98701.00
2018-12-16T23:18:28.026Z,98691.00
2018-12-16T23:20:55.246Z,98693.00
2018-12-16T23:23:22.388Z,98698.00
2018-12-16T23:25:49.586Z,98695.00
2018-12-16T23:28:16.885Z,98693.00
2018-12-16T23:30:43.986Z,98696.00
2018-12-16T23:33:11.185Z,98694.00
2018-12-16T23:35:38.306Z,98684.00
2018-12-16T23:38:05.428Z,98683.00
2018-12-16T23:40:32.626Z,98678.00
2018-12-16T23:43:00.045Z,98685.00
2018-12-16T23:45:27.246Z,98692.00
2018-12-16T23:47:54.405Z,98695.00
2018-12-16T23:50:21.587Z,98687.00
2018-12-16T23:52:48.805Z,98681.00
2018-12-16T23:55:15.965Z,98693.00
2018-12-16T23:57:43.045Z,98689.00
